Terminal Aerodrome Forecast
Issued by NWS

Home | Current Version | Previous Version | Text Only | Print | Product List | Glossary On
Versions: 1 2 3 4 5 6 7 8 9 10 11 12 13 14
000
FTUS45 KFGZ 040542
TAFPGA
TAF
KPGA 040542Z 0406/0506 VRB05KT P6SM BKN160
     FM041800 03008KT P6SM SCT080 BKN100 PROB30 0420/0502 6SM -SHRA=

USA.gov is the U.S. government's official web portal to all federal, state and local government web resources and services.